Terminal Aerodrome Forecast
Issued by NWS

Home | Current Version | Previous Version | Text Only | Print | Product List | Glossary On
Versions: 1 2 3 4 5 6 7 8 9 10 11 12 13 14 15 16 17 18 19 20 21 22 23 24 25 26 27 28 29 30 31 32 33 34 35 36
000
FTUS41 KBOX 051129
TAFFMH
TAF
KFMH 051129Z 0512/0612 00000KT P6SM -SN OVC035
     FM051300 00000KT P6SM -SN OVC030
     FM051400 14004KT P6SM -SNRA OVC025
     FM051500 15005KT P6SM VCSH OVC015
     FM051700 16006KT 6SM -RA OVC015
     FM052000 23006KT P6SM BKN015
     FM052200 27006KT P6SM SCT050
     FM061000 34007KT P6SM FEW250=

USA.gov is the U.S. government's official web portal to all federal, state and local government web resources and services.